Terminal Aerodrome Forecast
Issued by NWS

Home | Current Version | Previous Version | Text Only | Print | Product List | Glossary On
Versions: 1 2 3 4 5 6 7 8 9 10 11 12 13 14 15 16 17
000
FTUS46 KMTR 281120
TAFSTS
TAF
KSTS 281120Z 2812/2912 VRB03KT P6SM OVC010
     FM281700 VRB03KT P6SM SCT015
     FM281900 17008KT P6SM SKC
     FM290400 17004KT P6SM SCT010
     FM290600 VRB03KT P6SM OVC007=

USA.gov is the U.S. government's official web portal to all federal, state and local government web resources and services.